sensor_id;sensor_type;location;lat;lon;timestamp;temperature;humidity
24470;DHT22;12635;50.852;5.676;2023-05-15T00:01:59;12.00;99.90
24470;DHT22;12635;50.852;5.676;2023-05-15T00:04:26;11.90;99.90
24470;DHT22;12635;50.852;5.676;2023-05-15T00:06:53;11.90;99.90
24470;DHT22;12635;50.852;5.676;2023-05-15T00:09:20;11.90;99.90
24470;DHT22;12635;50.852;5.676;2023-05-15T00:11:47;11.90;99.90
24470;DHT22;12635;50.852;5.676;2023-05-15T00:14:13;11.80;99.90
24470;DHT22;12635;50.852;5.676;2023-05-15T00:16:42;11.80;99.90
24470;DHT22;12635;50.852;5.676;2023-05-15T00:19:08;11.70;99.90
24470;DHT22;12635;50.852;5.676;2023-05-15T00:21:35;11.80;99.90
24470;DHT22;12635;50.852;5.676;2023-05-15T00:24:02;11.70;99.90
24470;DHT22;12635;50.852;5.676;2023-05-15T00:26:29;11.70;99.90
24470;DHT22;12635;50.852;5.676;2023-05-15T00:28:56;11.60;99.90
24470;DHT22;12635;50.852;5.676;2023-05-15T00:31:23;11.70;99.90
24470;DHT22;12635;50.852;5.676;2023-05-15T00:33:51;11.60;99.90
24470;DHT22;12635;50.852;5.676;2023-05-15T00:36:18;11.60;99.90
24470;DHT22;12635;50.852;5.676;2023-05-15T00:38:46;11.60;99.90
24470;DHT22;12635;50.852;5.676;2023-05-15T00:41:13;11.50;99.90
24470;DHT22;12635;50.852;5.676;2023-05-15T00:43:40;11.60;99.90
24470;DHT22;12635;50.852;5.676;2023-05-15T00:46:07;11.50;99.90
24470;DHT22;12635;50.852;5.676;2023-05-15T00:48:34;11.50;99.90
24470;DHT22;12635;50.852;5.676;2023-05-15T00:51:04;11.40;99.90
24470;DHT22;12635;50.852;5.676;2023-05-15T00:53:30;11.30;99.90
24470;DHT22;12635;50.852;5.676;2023-05-15T00:55:57;11.30;99.90
24470;DHT22;12635;50.852;5.676;2023-05-15T01:00:51;11.20;99.90
24470;DHT22;12635;50.852;5.676;2023-05-15T01:03:18;11.20;99.90
24470;DHT22;12635;50.852;5.676;2023-05-15T01:05:45;11.30;99.90
24470;DHT22;12635;50.852;5.676;2023-05-15T01:08:15;11.30;99.90
24470;DHT22;12635;50.852;5.676;2023-05-15T01:10:44;11.40;99.90
24470;DHT22;12635;50.852;5.676;2023-05-15T01:13:13;11.40;99.90
24470;DHT22;12635;50.852;5.676;2023-05-15T01:15:39;11.40;99.90
24470;DHT22;12635;50.852;5.676;2023-05-15T01:18:06;11.40;99.90
24470;DHT22;12635;50.852;5.676;2023-05-15T01:20:36;11.40;99.90
24470;DHT22;12635;50.852;5.676;2023-05-15T01:23:08;11.40;99.90
24470;DHT22;12635;50.852;5.676;2023-05-15T01:28:25;11.20;99.90
24470;DHT22;12635;50.852;5.676;2023-05-15T01:30:55;11.20;99.90
24470;DHT22;12635;50.852;5.676;2023-05-15T01:33:24;11.20;99.90
24470;DHT22;12635;50.852;5.676;2023-05-15T01:35:54;11.20;99.90
24470;DHT22;12635;50.852;5.676;2023-05-15T01:38:23;11.10;99.90
24470;DHT22;12635;50.852;5.676;2023-05-15T01:40:53;11.10;99.90
24470;DHT22;12635;50.852;5.676;2023-05-15T01:43:21;11.20;99.90
24470;DHT22;12635;50.852;5.676;2023-05-15T01:45:51;11.10;99.90
24470;DHT22;12635;50.852;5.676;2023-05-15T01:48:18;11.10;99.90
24470;DHT22;12635;50.852;5.676;2023-05-15T01:50:46;11.10;99.90
24470;DHT22;12635;50.852;5.676;2023-05-15T01:53:15;11.00;99.90
24470;DHT22;12635;50.852;5.676;2023-05-15T01:55:42;11.00;99.90
24470;DHT22;12635;50.852;5.676;2023-05-15T01:58:09;11.00;99.90
24470;DHT22;12635;50.852;5.676;2023-05-15T02:00:36;10.90;99.90
24470;DHT22;12635;50.852;5.676;2023-05-15T02:03:05;10.80;99.90
24470;DHT22;12635;50.852;5.676;2023-05-15T02:05:32;10.80;99.90
24470;DHT22;12635;50.852;5.676;2023-05-15T02:08:00;10.70;99.90
24470;DHT22;12635;50.852;5.676;2023-05-15T02:10:27;10.70;99.90
24470;DHT22;12635;50.852;5.676;2023-05-15T02:12:54;10.70;99.90
24470;DHT22;12635;50.852;5.676;2023-05-15T02:15:22;10.70;99.90
24470;DHT22;12635;50.852;5.676;2023-05-15T02:17:49;10.80;99.90
24470;DHT22;12635;50.852;5.676;2023-05-15T02:20:17;10.80;99.90
24470;DHT22;12635;50.852;5.676;2023-05-15T02:22:44;10.90;99.90
24470;DHT22;12635;50.852;5.676;2023-05-15T02:25:11;10.80;99.90
24470;DHT22;12635;50.852;5.676;2023-05-15T02:27:39;10.90;99.90
24470;DHT22;12635;50.852;5.676;2023-05-15T02:30:10;10.90;99.90
24470;DHT22;12635;50.852;5.676;2023-05-15T02:32:42;10.90;99.90
24470;DHT22;12635;50.852;5.676;2023-05-15T02:35:16;10.90;99.90
24470;DHT22;12635;50.852;5.676;2023-05-15T02:37:47;10.90;99.90
24470;DHT22;12635;50.852;5.676;2023-05-15T02:40:15;10.80;99.90
24470;DHT22;12635;50.852;5.676;2023-05-15T02:42:42;10.80;99.90
24470;DHT22;12635;50.852;5.676;2023-05-15T02:45:09;10.80;99.90
24470;DHT22;12635;50.852;5.676;2023-05-15T02:47:37;10.70;99.90
24470;DHT22;12635;50.852;5.676;2023-05-15T02:50:04;10.60;99.90
24470;DHT22;12635;50.852;5.676;2023-05-15T02:52:31;10.60;99.90
24470;DHT22;12635;50.852;5.676;2023-05-15T02:55:00;10.50;99.90
24470;DHT22;12635;50.852;5.676;2023-05-15T02:57:27;10.50;99.90
24470;DHT22;12635;50.852;5.676;2023-05-15T02:59:54;10.40;99.90
24470;DHT22;12635;50.852;5.676;2023-05-15T03:02:21;10.40;99.90
24470;DHT22;12635;50.852;5.676;2023-05-15T03:04:48;10.40;99.90
24470;DHT22;12635;50.852;5.676;2023-05-15T03:07:15;10.30;99.90
24470;DHT22;12635;50.852;5.676;2023-05-15T03:09:41;10.20;99.90
24470;DHT22;12635;50.852;5.676;2023-05-15T03:12:10;10.20;99.90
24470;DHT22;12635;50.852;5.676;2023-05-15T03:14:36;10.10;99.90
24470;DHT22;12635;50.852;5.676;2023-05-15T03:17:04;10.00;99.90
24470;DHT22;12635;50.852;5.676;2023-05-15T03:19:31;10.00;99.90
24470;DHT22;12635;50.852;5.676;2023-05-15T03:21:58;9.90;99.90
24470;DHT22;12635;50.852;5.676;2023-05-15T03:24:25;9.80;99.90
24470;DHT22;12635;50.852;5.676;2023-05-15T03:26:52;9.80;99.90
24470;DHT22;12635;50.852;5.676;2023-05-15T03:29:20;9.80;99.90
24470;DHT22;12635;50.852;5.676;2023-05-15T03:31:47;9.80;99.90
24470;DHT22;12635;50.852;5.676;2023-05-15T03:34:13;9.90;99.90
24470;DHT22;12635;50.852;5.676;2023-05-15T03:36:40;9.90;99.90
24470;DHT22;12635;50.852;5.676;2023-05-15T03:39:07;9.90;99.90
24470;DHT22;12635;50.852;5.676;2023-05-15T03:41:34;9.80;99.90
24470;DHT22;12635;50.852;5.676;2023-05-15T03:44:01;9.80;99.90
24470;DHT22;12635;50.852;5.676;2023-05-15T03:46:29;9.70;99.90
24470;DHT22;12635;50.852;5.676;2023-05-15T03:48:56;9.70;99.90
24470;DHT22;12635;50.852;5.676;2023-05-15T03:51:23;9.70;99.90
24470;DHT22;12635;50.852;5.676;2023-05-15T03:53:50;9.70;99.90
24470;DHT22;12635;50.852;5.676;2023-05-15T03:56:16;9.60;99.90
24470;DHT22;12635;50.852;5.676;2023-05-15T03:58:43;9.60;99.90
24470;DHT22;12635;50.852;5.676;2023-05-15T04:01:10;9.70;99.90
24470;DHT22;12635;50.852;5.676;2023-05-15T04:03:38;9.80;99.90
24470;DHT22;12635;50.852;5.676;2023-05-15T04:06:05;9.80;99.90
24470;DHT22;12635;50.852;5.676;2023-05-15T04:08:32;9.90;99.90
24470;DHT22;12635;50.852;5.676;2023-05-15T04:10:59;9.90;99.90
24470;DHT22;12635;50.852;5.676;2023-05-15T04:13:25;9.90;99.90
24470;DHT22;12635;50.852;5.676;2023-05-15T04:15:52;9.90;99.90
24470;DHT22;12635;50.852;5.676;2023-05-15T04:18:19;9.80;99.90
24470;DHT22;12635;50.852;5.676;2023-05-15T04:20:47;9.80;99.90
24470;DHT22;12635;50.852;5.676;2023-05-15T04:23:14;9.80;99.90
24470;DHT22;12635;50.852;5.676;2023-05-15T04:25:41;9.80;99.90
24470;DHT22;12635;50.852;5.676;2023-05-15T04:28:11;9.80;99.90
24470;DHT22;12635;50.852;5.676;2023-05-15T04:30:37;9.80;99.90
24470;DHT22;12635;50.852;5.676;2023-05-15T04:33:04;9.80;99.90
24470;DHT22;12635;50.852;5.676;2023-05-15T04:35:31;9.70;99.90
24470;DHT22;12635;50.852;5.676;2023-05-15T04:37:59;9.80;99.90
24470;DHT22;12635;50.852;5.676;2023-05-15T04:40:27;9.70;99.90
24470;DHT22;12635;50.852;5.676;2023-05-15T04:42:54;9.70;99.90
24470;DHT22;12635;50.852;5.676;2023-05-15T04:45:20;9.70;99.90
24470;DHT22;12635;50.852;5.676;2023-05-15T04:47:48;9.70;99.90
24470;DHT22;12635;50.852;5.676;2023-05-15T04:50:15;9.70;99.90
24470;DHT22;12635;50.852;5.676;2023-05-15T04:52:42;9.70;99.90
24470;DHT22;12635;50.852;5.676;2023-05-15T04:55:11;9.70;99.90
24470;DHT22;12635;50.852;5.676;2023-05-15T04:57:38;9.70;99.90
24470;DHT22;12635;50.852;5.676;2023-05-15T05:00:05;9.80;99.90
24470;DHT22;12635;50.852;5.676;2023-05-15T05:02:34;9.80;99.90
24470;DHT22;12635;50.852;5.676;2023-05-15T05:05:01;9.70;99.90
24470;DHT22;12635;50.852;5.676;2023-05-15T05:07:28;9.70;99.90
24470;DHT22;12635;50.852;5.676;2023-05-15T05:09:55;9.70;99.90
24470;DHT22;12635;50.852;5.676;2023-05-15T05:12:23;9.90;99.90
24470;DHT22;12635;50.852;5.676;2023-05-15T05:14:50;9.70;99.90
24470;DHT22;12635;50.852;5.676;2023-05-15T05:17:17;9.60;99.90
24470;DHT22;12635;50.852;5.676;2023-05-15T05:19:44;9.60;99.90
24470;DHT22;12635;50.852;5.676;2023-05-15T05:22:10;9.60;99.90
24470;DHT22;12635;50.852;5.676;2023-05-15T05:24:37;9.70;99.90
24470;DHT22;12635;50.852;5.676;2023-05-15T05:27:04;9.70;99.90
24470;DHT22;12635;50.852;5.676;2023-05-15T05:29:32;9.80;99.90
24470;DHT22;12635;50.852;5.676;2023-05-15T05:31:59;10.00;99.90
24470;DHT22;12635;50.852;5.676;2023-05-15T05:34:27;10.00;99.90
24470;DHT22;12635;50.852;5.676;2023-05-15T05:36:53;10.10;99.90
24470;DHT22;12635;50.852;5.676;2023-05-15T05:39:20;10.20;99.90
24470;DHT22;12635;50.852;5.676;2023-05-15T05:41:47;10.10;99.90
24470;DHT22;12635;50.852;5.676;2023-05-15T05:44:14;10.00;99.90
24470;DHT22;12635;50.852;5.676;2023-05-15T05:46:42;10.00;99.90
24470;DHT22;12635;50.852;5.676;2023-05-15T05:49:09;9.80;99.90
24470;DHT22;12635;50.852;5.676;2023-05-15T05:51:36;9.90;99.90
24470;DHT22;12635;50.852;5.676;2023-05-15T05:54:03;9.90;99.90
24470;DHT22;12635;50.852;5.676;2023-05-15T05:56:30;10.20;99.90
24470;DHT22;12635;50.852;5.676;2023-05-15T05:58:57;10.40;99.90
24470;DHT22;12635;50.852;5.676;2023-05-15T06:01:26;10.60;99.90
24470;DHT22;12635;50.852;5.676;2023-05-15T06:03:54;10.80;99.90
24470;DHT22;12635;50.852;5.676;2023-05-15T06:06:21;10.70;99.90
24470;DHT22;12635;50.852;5.676;2023-05-15T06:08:48;10.60;99.90
24470;DHT22;12635;50.852;5.676;2023-05-15T06:11:15;10.60;99.90
24470;DHT22;12635;50.852;5.676;2023-05-15T06:13:42;10.50;99.90
24470;DHT22;12635;50.852;5.676;2023-05-15T06:16:09;10.50;99.90
24470;DHT22;12635;50.852;5.676;2023-05-15T06:18:36;10.70;99.90
24470;DHT22;12635;50.852;5.676;2023-05-15T06:21:04;10.90;99.90
24470;DHT22;12635;50.852;5.676;2023-05-15T06:23:31;10.90;99.90
24470;DHT22;12635;50.852;5.676;2023-05-15T06:25:58;10.80;99.90
24470;DHT22;12635;50.852;5.676;2023-05-15T06:28:26;10.80;99.90
24470;DHT22;12635;50.852;5.676;2023-05-15T06:30:52;10.80;99.90
24470;DHT22;12635;50.852;5.676;2023-05-15T06:33:19;10.90;99.90
24470;DHT22;12635;50.852;5.676;2023-05-15T06:35:47;10.80;99.90
24470;DHT22;12635;50.852;5.676;2023-05-15T06:38:15;10.90;99.90
24470;DHT22;12635;50.852;5.676;2023-05-15T06:40:42;10.90;99.90
24470;DHT22;12635;50.852;5.676;2023-05-15T06:43:09;10.90;99.90
24470;DHT22;12635;50.852;5.676;2023-05-15T06:45:35;11.00;99.90
24470;DHT22;12635;50.852;5.676;2023-05-15T06:48:02;11.20;99.90
24470;DHT22;12635;50.852;5.676;2023-05-15T06:50:29;11.10;99.90
24470;DHT22;12635;50.852;5.676;2023-05-15T06:52:56;11.50;99.90
24470;DHT22;12635;50.852;5.676;2023-05-15T06:55:25;12.10;99.90
24470;DHT22;12635;50.852;5.676;2023-05-15T06:57:52;12.50;99.90
24470;DHT22;12635;50.852;5.676;2023-05-15T07:00:19;12.30;99.90
24470;DHT22;12635;50.852;5.676;2023-05-15T07:02:45;12.00;99.90
24470;DHT22;12635;50.852;5.676;2023-05-15T07:05:12;12.40;99.90
24470;DHT22;12635;50.852;5.676;2023-05-15T07:07:39;13.10;99.90
24470;DHT22;12635;50.852;5.676;2023-05-15T07:10:07;12.90;99.90
24470;DHT22;12635;50.852;5.676;2023-05-15T07:12:36;12.30;99.90
24470;DHT22;12635;50.852;5.676;2023-05-15T07:15:03;12.00;99.90
24470;DHT22;12635;50.852;5.676;2023-05-15T07:17:30;12.40;99.90
24470;DHT22;12635;50.852;5.676;2023-05-15T07:19:57;13.00;99.90
24470;DHT22;12635;50.852;5.676;2023-05-15T07:22:25;13.20;99.90
24470;DHT22;12635;50.852;5.676;2023-05-15T07:24:52;12.90;99.90
24470;DHT22;12635;50.852;5.676;2023-05-15T07:27:18;12.80;99.90
24470;DHT22;12635;50.852;5.676;2023-05-15T07:29:47;12.80;99.90
24470;DHT22;12635;50.852;5.676;2023-05-15T07:32:14;13.30;99.90
24470;DHT22;12635;50.852;5.676;2023-05-15T07:34:40;14.10;99.90
24470;DHT22;12635;50.852;5.676;2023-05-15T07:37:08;15.50;99.90
24470;DHT22;12635;50.852;5.676;2023-05-15T07:39:35;16.60;99.90
24470;DHT22;12635;50.852;5.676;2023-05-15T07:42:02;16.00;99.90
24470;DHT22;12635;50.852;5.676;2023-05-15T07:44:29;14.70;99.90
24470;DHT22;12635;50.852;5.676;2023-05-15T07:46:57;14.70;99.90
24470;DHT22;12635;50.852;5.676;2023-05-15T07:49:24;15.70;99.90
24470;DHT22;12635;50.852;5.676;2023-05-15T07:51:51;16.50;99.90
24470;DHT22;12635;50.852;5.676;2023-05-15T07:54:18;17.10;99.90
24470;DHT22;12635;50.852;5.676;2023-05-15T07:56:45;17.30;99.90
24470;DHT22;12635;50.852;5.676;2023-05-15T07:59:12;18.30;99.90
24470;DHT22;12635;50.852;5.676;2023-05-15T08:01:38;19.10;99.90
24470;DHT22;12635;50.852;5.676;2023-05-15T08:04:07;19.60;99.90
24470;DHT22;12635;50.852;5.676;2023-05-15T08:06:34;20.60;99.90
24470;DHT22;12635;50.852;5.676;2023-05-15T08:09:02;19.70;99.90
24470;DHT22;12635;50.852;5.676;2023-05-15T08:11:29;19.10;99.90
24470;DHT22;12635;50.852;5.676;2023-05-15T08:13:56;18.20;99.90
24470;DHT22;12635;50.852;5.676;2023-05-15T08:16:23;17.40;99.90
24470;DHT22;12635;50.852;5.676;2023-05-15T08:18:50;17.40;99.90
24470;DHT22;12635;50.852;5.676;2023-05-15T08:21:21;18.10;99.90
24470;DHT22;12635;50.852;5.676;2023-05-15T08:23:48;19.10;99.90
24470;DHT22;12635;50.852;5.676;2023-05-15T08:26:15;18.60;99.90
24470;DHT22;12635;50.852;5.676;2023-05-15T08:28:42;18.50;99.90
24470;DHT22;12635;50.852;5.676;2023-05-15T08:31:08;20.10;99.90
24470;DHT22;12635;50.852;5.676;2023-05-15T08:33:35;19.60;99.90
24470;DHT22;12635;50.852;5.676;2023-05-15T08:36:02;18.10;99.90
24470;DHT22;12635;50.852;5.676;2023-05-15T08:38:30;18.00;99.90
24470;DHT22;12635;50.852;5.676;2023-05-15T08:40:58;17.90;99.90
24470;DHT22;12635;50.852;5.676;2023-05-15T08:43:28;17.90;99.90
24470;DHT22;12635;50.852;5.676;2023-05-15T08:45:55;18.90;99.90
24470;DHT22;12635;50.852;5.676;2023-05-15T08:48:23;19.90;99.90
24470;DHT22;12635;50.852;5.676;2023-05-15T08:50:50;19.20;99.90
24470;DHT22;12635;50.852;5.676;2023-05-15T08:53:18;19.00;99.90
24470;DHT22;12635;50.852;5.676;2023-05-15T08:55:46;18.10;99.90
24470;DHT22;12635;50.852;5.676;2023-05-15T08:58:13;18.50;99.90
24470;DHT22;12635;50.852;5.676;2023-05-15T09:00:41;18.90;99.90
24470;DHT22;12635;50.852;5.676;2023-05-15T09:03:12;17.70;99.90
24470;DHT22;12635;50.852;5.676;2023-05-15T09:05:39;17.00;99.90
24470;DHT22;12635;50.852;5.676;2023-05-15T09:08:06;17.10;99.90
24470;DHT22;12635;50.852;5.676;2023-05-15T09:10:33;17.50;99.90
24470;DHT22;12635;50.852;5.676;2023-05-15T09:13:03;17.00;99.90
24470;DHT22;12635;50.852;5.676;2023-05-15T09:15:31;17.20;99.90
24470;DHT22;12635;50.852;5.676;2023-05-15T09:17:58;17.00;99.90
24470;DHT22;12635;50.852;5.676;2023-05-15T09:20:27;17.20;99.90
24470;DHT22;12635;50.852;5.676;2023-05-15T09:22:54;18.10;99.90
24470;DHT22;12635;50.852;5.676;2023-05-15T09:25:31;18.90;99.90
24470;DHT22;12635;50.852;5.676;2023-05-15T09:27:58;19.90;99.90
24470;DHT22;12635;50.852;5.676;2023-05-15T09:30:26;20.00;99.90
24470;DHT22;12635;50.852;5.676;2023-05-15T09:32:55;19.90;99.90
24470;DHT22;12635;50.852;5.676;2023-05-15T09:35:32;19.90;99.90
24470;DHT22;12635;50.852;5.676;2023-05-15T09:37:59;20.10;99.90
24470;DHT22;12635;50.852;5.676;2023-05-15T09:40:30;19.50;99.90
24470;DHT22;12635;50.852;5.676;2023-05-15T09:42:57;19.00;99.90
24470;DHT22;12635;50.852;5.676;2023-05-15T09:45:24;19.50;99.90
24470;DHT22;12635;50.852;5.676;2023-05-15T09:47:52;19.30;99.90
24470;DHT22;12635;50.852;5.676;2023-05-15T09:50:19;19.00;99.90
24470;DHT22;12635;50.852;5.676;2023-05-15T09:52:47;19.40;99.90
24470;DHT22;12635;50.852;5.676;2023-05-15T09:55:14;20.40;99.90
24470;DHT22;12635;50.852;5.676;2023-05-15T09:57:43;20.80;99.90
24470;DHT22;12635;50.852;5.676;2023-05-15T10:00:11;18.90;99.90
24470;DHT22;12635;50.852;5.676;2023-05-15T10:02:38;19.50;99.90
24470;DHT22;12635;50.852;5.676;2023-05-15T10:05:07;20.10;99.90
24470;DHT22;12635;50.852;5.676;2023-05-15T10:07:37;20.30;99.90
24470;DHT22;12635;50.852;5.676;2023-05-15T10:10:04;19.90;99.90
24470;DHT22;12635;50.852;5.676;2023-05-15T10:12:31;19.50;99.90
24470;DHT22;12635;50.852;5.676;2023-05-15T10:15:01;19.00;99.90
24470;DHT22;12635;50.852;5.676;2023-05-15T10:17:29;19.40;99.90
24470;DHT22;12635;50.852;5.676;2023-05-15T10:19:57;20.50;99.90
24470;DHT22;12635;50.852;5.676;2023-05-15T10:22:27;20.00;99.90
24470;DHT22;12635;50.852;5.676;2023-05-15T10:24:58;18.50;99.90
24470;DHT22;12635;50.852;5.676;2023-05-15T10:27:26;19.00;99.90
24470;DHT22;12635;50.852;5.676;2023-05-15T10:29:53;19.70;99.90
24470;DHT22;12635;50.852;5.676;2023-05-15T10:32:20;19.30;99.90
24470;DHT22;12635;50.852;5.676;2023-05-15T10:34:47;19.10;99.90
24470;DHT22;12635;50.852;5.676;2023-05-15T10:37:15;18.90;99.90
24470;DHT22;12635;50.852;5.676;2023-05-15T10:39:45;19.80;99.90
24470;DHT22;12635;50.852;5.676;2023-05-15T10:42:12;19.70;99.90
24470;DHT22;12635;50.852;5.676;2023-05-15T10:44:40;19.90;99.90
24470;DHT22;12635;50.852;5.676;2023-05-15T10:47:07;20.00;99.90
24470;DHT22;12635;50.852;5.676;2023-05-15T10:49:34;20.10;99.90
24470;DHT22;12635;50.852;5.676;2023-05-15T10:52:01;20.20;99.90
24470;DHT22;12635;50.852;5.676;2023-05-15T10:54:28;20.20;99.90
24470;DHT22;12635;50.852;5.676;2023-05-15T10:56:57;20.80;99.90
24470;DHT22;12635;50.852;5.676;2023-05-15T10:59:29;20.00;99.90
24470;DHT22;12635;50.852;5.676;2023-05-15T11:01:56;20.70;99.90
24470;DHT22;12635;50.852;5.676;2023-05-15T11:04:23;20.70;99.90
24470;DHT22;12635;50.852;5.676;2023-05-15T11:06:50;21.80;99.90
24470;DHT22;12635;50.852;5.676;2023-05-15T11:09:36;20.90;99.90
24470;DHT22;12635;50.852;5.676;2023-05-15T11:12:06;21.20;99.90
24470;DHT22;12635;50.852;5.676;2023-05-15T11:14:34;20.90;99.90
24470;DHT22;12635;50.852;5.676;2023-05-15T11:17:02;20.60;99.90
24470;DHT22;12635;50.852;5.676;2023-05-15T11:22:14;20.30;99.90
24470;DHT22;12635;50.852;5.676;2023-05-15T11:24:49;20.50;99.90
24470;DHT22;12635;50.852;5.676;2023-05-15T11:27:17;20.50;99.90
24470;DHT22;12635;50.852;5.676;2023-05-15T11:32:50;20.60;99.90
24470;DHT22;12635;50.852;5.676;2023-05-15T11:35:17;20.30;99.90
24470;DHT22;12635;50.852;5.676;2023-05-15T11:37:45;20.60;99.90
24470;DHT22;12635;50.852;5.676;2023-05-15T11:40:12;20.40;99.90
24470;DHT22;12635;50.852;5.676;2023-05-15T11:42:55;21.10;99.90
24470;DHT22;12635;50.852;5.676;2023-05-15T11:45:23;21.00;99.90
24470;DHT22;12635;50.852;5.676;2023-05-15T11:47:50;21.30;99.90
24470;DHT22;12635;50.852;5.676;2023-05-15T11:50:17;22.00;99.90
24470;DHT22;12635;50.852;5.676;2023-05-15T11:52:45;21.80;99.90
24470;DHT22;12635;50.852;5.676;2023-05-15T11:55:12;22.90;99.90
24470;DHT22;12635;50.852;5.676;2023-05-15T11:57:39;21.40;99.90
24470;DHT22;12635;50.852;5.676;2023-05-15T12:00:08;19.70;99.90
24470;DHT22;12635;50.852;5.676;2023-05-15T12:02:35;19.60;99.90
24470;DHT22;12635;50.852;5.676;2023-05-15T12:05:05;19.20;99.90
24470;DHT22;12635;50.852;5.676;2023-05-15T12:07:34;19.10;99.90
24470;DHT22;12635;50.852;5.676;2023-05-15T12:10:01;19.00;99.90
24470;DHT22;12635;50.852;5.676;2023-05-15T12:12:28;18.70;99.90
24470;DHT22;12635;50.852;5.676;2023-05-15T12:14:56;18.60;99.90
24470;DHT22;12635;50.852;5.676;2023-05-15T12:17:24;18.90;99.90
24470;DHT22;12635;50.852;5.676;2023-05-15T12:19:52;19.80;99.90
24470;DHT22;12635;50.852;5.676;2023-05-15T12:22:19;20.30;99.90
24470;DHT22;12635;50.852;5.676;2023-05-15T12:24:46;20.10;99.90
24470;DHT22;12635;50.852;5.676;2023-05-15T12:27:13;19.80;99.90
24470;DHT22;12635;50.852;5.676;2023-05-15T12:29:40;19.90;99.90
24470;DHT22;12635;50.852;5.676;2023-05-15T12:32:07;19.60;99.90
24470;DHT22;12635;50.852;5.676;2023-05-15T12:34:36;18.90;99.90
24470;DHT22;12635;50.852;5.676;2023-05-15T12:37:03;19.40;99.90
24470;DHT22;12635;50.852;5.676;2023-05-15T12:39:31;19.40;99.90
24470;DHT22;12635;50.852;5.676;2023-05-15T12:41:58;18.60;99.90
24470;DHT22;12635;50.852;5.676;2023-05-15T12:44:24;18.60;99.90
24470;DHT22;12635;50.852;5.676;2023-05-15T12:46:52;19.20;99.90
24470;DHT22;12635;50.852;5.676;2023-05-15T12:49:20;19.40;99.90
24470;DHT22;12635;50.852;5.676;2023-05-15T12:51:48;18.30;99.90
24470;DHT22;12635;50.852;5.676;2023-05-15T12:54:15;18.20;99.90
24470;DHT22;12635;50.852;5.676;2023-05-15T12:56:42;17.70;99.90
24470;DHT22;12635;50.852;5.676;2023-05-15T12:59:09;18.30;99.90
24470;DHT22;12635;50.852;5.676;2023-05-15T13:01:36;18.70;99.90
24470;DHT22;12635;50.852;5.676;2023-05-15T13:04:03;19.30;99.90
24470;DHT22;12635;50.852;5.676;2023-05-15T13:06:30;18.40;99.90
24470;DHT22;12635;50.852;5.676;2023-05-15T13:08:59;18.20;99.90
24470;DHT22;12635;50.852;5.676;2023-05-15T13:11:28;18.00;99.90
24470;DHT22;12635;50.852;5.676;2023-05-15T13:13:55;17.80;99.90
24470;DHT22;12635;50.852;5.676;2023-05-15T13:16:23;18.70;99.90
24470;DHT22;12635;50.852;5.676;2023-05-15T13:18:50;20.20;99.90
24470;DHT22;12635;50.852;5.676;2023-05-15T13:21:17;20.80;99.90
24470;DHT22;12635;50.852;5.676;2023-05-15T13:23:44;18.70;99.90
24470;DHT22;12635;50.852;5.676;2023-05-15T13:26:13;18.70;99.90
24470;DHT22;12635;50.852;5.676;2023-05-15T13:28:39;18.90;99.90
24470;DHT22;12635;50.852;5.676;2023-05-15T13:31:06;19.00;99.90
24470;DHT22;12635;50.852;5.676;2023-05-15T13:33:33;19.10;99.90
24470;DHT22;12635;50.852;5.676;2023-05-15T13:36:02;18.40;99.90
24470;DHT22;12635;50.852;5.676;2023-05-15T13:38:28;18.40;99.90
24470;DHT22;12635;50.852;5.676;2023-05-15T13:40:55;18.20;99.90
24470;DHT22;12635;50.852;5.676;2023-05-15T13:43:24;18.40;99.90
24470;DHT22;12635;50.852;5.676;2023-05-15T13:45:51;17.70;99.90
24470;DHT22;12635;50.852;5.676;2023-05-15T13:48:17;17.60;99.90
24470;DHT22;12635;50.852;5.676;2023-05-15T13:50:44;17.50;99.90
24470;DHT22;12635;50.852;5.676;2023-05-15T13:53:12;17.50;99.90
24470;DHT22;12635;50.852;5.676;2023-05-15T13:55:41;17.50;99.90
24470;DHT22;12635;50.852;5.676;2023-05-15T13:58:09;17.30;99.90
24470;DHT22;12635;50.852;5.676;2023-05-15T14:00:38;16.70;99.90
24470;DHT22;12635;50.852;5.676;2023-05-15T14:03:05;16.50;99.90
24470;DHT22;12635;50.852;5.676;2023-05-15T14:05:32;16.70;99.90
24470;DHT22;12635;50.852;5.676;2023-05-15T14:07:59;16.70;99.90
24470;DHT22;12635;50.852;5.676;2023-05-15T14:10:26;16.40;99.90
24470;DHT22;12635;50.852;5.676;2023-05-15T14:12:53;16.50;99.90
24470;DHT22;12635;50.852;5.676;2023-05-15T14:15:20;16.30;99.90
24470;DHT22;12635;50.852;5.676;2023-05-15T14:17:48;16.30;99.90
24470;DHT22;12635;50.852;5.676;2023-05-15T14:20:15;16.50;99.90
24470;DHT22;12635;50.852;5.676;2023-05-15T14:22:42;15.70;99.90
24470;DHT22;12635;50.852;5.676;2023-05-15T14:25:09;15.90;99.90
24470;DHT22;12635;50.852;5.676;2023-05-15T14:27:36;16.30;99.90
24470;DHT22;12635;50.852;5.676;2023-05-15T14:30:03;16.00;99.90
24470;DHT22;12635;50.852;5.676;2023-05-15T14:32:30;15.90;99.90
24470;DHT22;12635;50.852;5.676;2023-05-15T14:34:58;15.80;99.90
24470;DHT22;12635;50.852;5.676;2023-05-15T14:37:26;15.90;99.90
24470;DHT22;12635;50.852;5.676;2023-05-15T14:39:53;16.00;99.90
24470;DHT22;12635;50.852;5.676;2023-05-15T14:42:20;15.80;99.90
24470;DHT22;12635;50.852;5.676;2023-05-15T14:44:46;15.60;99.90
24470;DHT22;12635;50.852;5.676;2023-05-15T14:47:13;15.40;99.90
24470;DHT22;12635;50.852;5.676;2023-05-15T14:49:41;15.30;99.90
24470;DHT22;12635;50.852;5.676;2023-05-15T14:52:09;15.50;99.90
24470;DHT22;12635;50.852;5.676;2023-05-15T14:54:37;15.40;99.90
24470;DHT22;12635;50.852;5.676;2023-05-15T14:57:04;15.30;99.90
24470;DHT22;12635;50.852;5.676;2023-05-15T14:59:31;15.20;99.90
24470;DHT22;12635;50.852;5.676;2023-05-15T15:01:58;15.30;99.90
24470;DHT22;12635;50.852;5.676;2023-05-15T15:04:24;15.20;99.90
24470;DHT22;12635;50.852;5.676;2023-05-15T15:06:53;15.20;99.90
24470;DHT22;12635;50.852;5.676;2023-05-15T15:09:23;15.20;99.90
24470;DHT22;12635;50.852;5.676;2023-05-15T15:11:50;15.20;99.90
24470;DHT22;12635;50.852;5.676;2023-05-15T15:14:17;15.10;99.90
24470;DHT22;12635;50.852;5.676;2023-05-15T15:16:43;15.00;99.90
24470;DHT22;12635;50.852;5.676;2023-05-15T15:19:10;15.00;99.90
24470;DHT22;12635;50.852;5.676;2023-05-15T15:21:37;15.20;99.90
24470;DHT22;12635;50.852;5.676;2023-05-15T15:24:05;15.20;99.90
24470;DHT22;12635;50.852;5.676;2023-05-15T15:26:33;15.20;99.90
24470;DHT22;12635;50.852;5.676;2023-05-15T15:29:00;15.30;99.90
24470;DHT22;12635;50.852;5.676;2023-05-15T15:31:27;15.20;99.90
24470;DHT22;12635;50.852;5.676;2023-05-15T15:33:54;15.20;99.90
24470;DHT22;12635;50.852;5.676;2023-05-15T15:36:21;15.10;99.90
24470;DHT22;12635;50.852;5.676;2023-05-15T15:38:48;15.00;99.90
24470;DHT22;12635;50.852;5.676;2023-05-15T15:41:15;14.90;99.90
24470;DHT22;12635;50.852;5.676;2023-05-15T15:43:44;15.10;99.90
24470;DHT22;12635;50.852;5.676;2023-05-15T15:46:10;15.20;99.90